Rose Hill, Iowa
Current Conditions -  °F | °C
As of 5:15 PM on Wednesday 22 Oct 2014 (Local Time) from KOOA Reporting Station
Clear Clear  
Wind Chill: 61°   Ceiling: Unl
Heat Index: 61°   Visibility: 10mi
Dew Point: 41°   Wind: 10mph
Humidity: 47%   Direction: 150°SSE
Pressure: 30.16"   Gusts: NA
Location:  41.32°N, 92.46°W
Report Text: KOOA 222215Z AUTO 15009KT 10SM CLR 16/05 A3016 RMK AO2 T01630050
Loading
Personal Weather Stations






























Interactive Weather Map
Tropical Storm Tracking
New forecast layout! Learn more

10-Day Weather Forecast

Advertisements
Track Severe Weather on mobile